Lindstrom, MN (55045)

4:20 AM CST on February 14, 2016 (GMT -0600)
lindstrom | | Change Station
CLOSE
Current Station
Personal Weather Station
Location: Lindstrom, MN
Elevation: 883 ft
Nearby Weather Stations

Elev 883 ft 45.36 °N, 92.86 °W | Updated 7 seconds ago

Overcast
Overcast
6.5 °F
Feels Like -4 °F
N
6.0
Wind Variable Wind from SE
Gusts 6.0 mph

Today
High -- | Low -- °F
--% Chance of Precip.
Yesterday
High -- | Low -- °F
Precip. -- in
Pressure 30.22 in
Visibility 10.0 miles
Clouds Overcast 6500 ft
Windchill -4 °F
Dew Point -3 °F
Humidity 63%
Rainfall 0.00 in
Snow Depth Not available.
7:15 AM 5:36 PM
Waxing Crescent, 40% visible
METAR KOEO 140955Z AUTO 12008KT 10SM OVC065 M14/M21 A3022 RMK AO2 T11381209
Pressure 30.22 in
Visibility 10.0 miles
Clouds Overcast 6500 ft
Windchill -4 °F
Dew Point -3 °F
Humidity 63%
Rainfall 0.00 in
Snow Depth Not available.
7:15 AM 5:36 PM
Waxing Crescent, 40% visible
METAR KOEO 140955Z AUTO 12008KT 10SM OVC065 M14/M21 A3022 RMK AO2 T11381209

10-Day Weather Forecast

Almanac

Astronomy

Feb. 14, 2016 Rise Set
Actual Time
Civil Twilight
Nautical Twilight
Astronomical Twilight
Moon
Length of Visible Light
Length of Day
Tomorrow will be .
, % of the Moon is Illuminated

Today's Extremes

State Highs State Lows

Community

WunderPhotos

Upload Photos

1,892,765 photos uploaded!

WunderBlog® & News

Nearby

Air Quality

  Air Quality AQ Index Pollutant
Not available.

Snow Depth

Station Depth Elevation

Earthquake Activity

City Distance Mag. Time & Date
Minimum magnitude displayed is 2.5.

Coastal Water Temperatures

Place Temperature

Stations

Nearby Weather Stations

Station Location Temp. Windchill Dew Point Humidity Wind Precip. Elev Updated Type
                   

Watches & Warnings

There are currently no watches in effect.